Time;durP1;ratioP1;P1;durP2;ratioP2;P2;SDS_P1;SDS_P2;PMS_P1;PMS_P2;Temp;Humidity;BMP_temperature;BMP_pressure;BME280_temperature;BME280_humidity;BME280_pressure;Samples;Min_cycle;Max_cycle;Signal;HPM_P1;HPM_P2
2023/01/18 00:01:55;;;;;;;0.63;0.32;;;;;;;;;;5022634;28;20028;-73
2023/01/18 00:04:20;;;;;;;5.68;1.85;;;;;;;;;;5048424;28;20074;-73
2023/01/18 00:06:46;;;;;;;6.90;1.48;;;;;;;;;;5038026;28;20094;-73
2023/01/18 00:09:12;;;;;;;7.57;1.15;;;;;;;;;;5030067;28;20020;-73
2023/01/18 00:11:39;;;;;;;7.75;1.67;;;;;;;;;;5028853;28;20481;-74
2023/01/18 00:14:05;;;;;;;8.10;1.25;;;;;;;;;;5028315;28;20051;-73
2023/01/18 00:16:30;;;;;;;1.10;0.43;;;;;;;;;;5030172;28;20025;-73
2023/01/18 00:18:57;;;;;;;6.60;1.42;;;;;;;;;;5032863;28;20024;-74
2023/01/18 00:21:24;;;;;;;9.40;1.15;;;;;;;;;;5013468;28;20036;-77
2023/01/18 00:23:49;;;;;;;11.80;1.67;;;;;;;;;;5042412;28;20005;-73
2023/01/18 00:26:15;;;;;;;5.75;1.05;;;;;;;;;;5042034;28;20059;-73
2023/01/18 00:28:40;;;;;;;7.60;1.20;;;;;;;;;;5041594;28;20009;-75
2023/01/18 00:31:11;;;;;;;7.30;1.70;;;;;;;;;;5041439;28;20029;-73
2023/01/18 00:33:36;;;;;;;;;;;;;;;;;;5033701;28;20037;-75
2023/01/18 00:36:02;;;;;;;10.13;1.50;;;;;;;;;;5033180;28;19916;-73
2023/01/18 00:38:28;;;;;;;2.45;0.75;;;;;;;;;;5032644;28;20017;-74
2023/01/18 00:40:53;;;;;;;4.00;0.73;;;;;;;;;;5033183;28;20036;-72
2023/01/18 00:43:37;;;;;;;2.58;1.25;;;;;;;;;;5033209;28;20381;-73
2023/01/18 00:46:03;;;;;;;10.80;1.00;;;;;;;;;;5031751;28;20029;-72
2023/01/18 00:48:28;;;;;;;5.22;1.08;;;;;;;;;;5033197;28;20465;-73
2023/01/18 00:50:54;;;;;;;2.08;0.45;;;;;;;;;;5032967;28;20024;-73
2023/01/18 00:53:19;;;;;;;4.13;0.93;;;;;;;;;;5032770;28;20405;-73
2023/01/18 00:55:46;;;;;;;7.95;1.33;;;;;;;;;;5033291;28;20025;-74
2023/01/18 00:58:11;;;;;;;3.63;1.13;;;;;;;;;;5033425;28;20030;-73
2023/01/18 01:00:37;;;;;;;5.13;1.05;;;;;;;;;;5033075;28;20018;-75
2023/01/18 01:03:03;;;;;;;4.20;0.50;;;;;;;;;;5015380;28;20033;-74
2023/01/18 01:08:16;;;;;;;4.40;0.65;;;;;;;;;;5042398;28;20035;-74
2023/01/18 01:10:46;;;;;;;4.65;0.65;;;;;;;;;;5005617;28;20025;-73
2023/01/18 01:26:51;;;;;;;4.45;0.50;;;;;;;;;;5031762;28;20029;-75
2023/01/18 01:29:16;;;;;;;10.27;1.30;;;;;;;;;;5033236;28;20108;-74
2023/01/18 01:31:42;;;;;;;3.95;0.88;;;;;;;;;;5032647;28;20177;-74
2023/01/18 01:34:08;;;;;;;5.22;1.27;;;;;;;;;;5015248;28;20022;-73
2023/01/18 01:36:33;;;;;;;7.70;1.27;;;;;;;;;;5032604;28;20065;-73
2023/01/18 01:38:59;;;;;;;7.05;1.75;;;;;;;;;;5031622;28;20052;-74
2023/01/18 01:41:26;;;;;;;1.10;0.40;;;;;;;;;;5035142;28;20029;-73
2023/01/18 01:43:53;;;;;;;8.98;1.30;;;;;;;;;;5018678;28;20028;-73
2023/01/18 01:46:41;;;;;;;4.53;1.13;;;;;;;;;;5017960;28;20032;-74
2023/01/18 01:49:08;;;;;;;5.70;1.30;;;;;;;;;;5027455;28;20029;-74
2023/01/18 01:51:36;;;;;;;8.02;1.00;;;;;;;;;;5018186;28;20043;-75
2023/01/18 01:54:03;;;;;;;2.72;1.15;;;;;;;;;;5036428;28;20086;-74
2023/01/18 01:56:29;;;;;;;5.97;1.08;;;;;;;;;;5035672;28;20460;-74
2023/01/18 01:58:57;;;;;;;8.77;1.95;;;;;;;;;;5018342;28;20029;-74
2023/01/18 02:01:22;;;;;;;5.07;0.85;;;;;;;;;;5035641;28;20021;-74
2023/01/18 02:03:47;;;;;;;8.25;1.23;;;;;;;;;;5035875;28;20495;-74
2023/01/18 02:06:23;;;;;;;0.47;0.38;;;;;;;;;;5035452;28;20045;-74
2023/01/18 02:08:48;;;;;;;1.60;0.52;;;;;;;;;;5017112;28;20018;-74
2023/01/18 02:11:14;;;;;;;7.53;0.73;;;;;;;;;;5034623;28;22023;-75
2023/01/18 02:13:39;;;;;;;1.17;0.43;;;;;;;;;;5017945;28;20112;-75
2023/01/18 02:16:11;;;;;;;8.40;1.33;;;;;;;;;;5035765;28;20029;-74
2023/01/18 02:18:42;;;;;;;2.33;1.70;;;;;;;;;;5034866;28;20018;-74
2023/01/18 02:21:27;;;;;;;7.18;1.15;;;;;;;;;;5034600;28;20453;-74
2023/01/18 02:23:52;;;;;;;4.90;1.10;;;;;;;;;;5017956;28;20584;-75
2023/01/18 02:26:33;;;;;;;2.92;0.57;;;;;;;;;;5035247;28;20112;-74
2023/01/18 02:29:07;;;;;;;3.75;0.75;;;;;;;;;;5035656;28;20022;-73
2023/01/18 02:31:40;;;;;;;5.40;1.17;;;;;;;;;;5035597;28;20040;-73
2023/01/18 02:34:24;;;;;;;0.45;0.25;;;;;;;;;;5034932;28;20033;-73
2023/01/18 02:36:52;;;;;;;0.85;0.55;;;;;;;;;;5035533;28;20044;-73
2023/01/18 02:39:30;;;;;;;1.98;0.82;;;;;;;;;;5034918;28;20066;-73
2023/01/18 02:47:29;;;;;;;2.42;0.68;;;;;;;;;;5035138;28;20038;-73
2023/01/18 02:49:55;;;;;;;3.50;0.75;;;;;;;;;;5034938;28;20083;-73
2023/01/18 02:52:35;;;;;;;0.93;0.65;;;;;;;;;;5034240;28;20086;-73
2023/01/18 02:55:01;;;;;;;2.97;0.73;;;;;;;;;;5034247;28;20436;-73
2023/01/18 02:57:26;;;;;;;1.48;0.28;;;;;;;;;;5035105;28;20053;-73
2023/01/18 02:59:53;;;;;;;0.68;0.68;;;;;;;;;;5035013;28;20083;-73
2023/01/18 03:02:20;;;;;;;6.38;1.27;;;;;;;;;;5034863;28;20453;-73
2023/01/18 03:04:53;;;;;;;4.57;0.60;;;;;;;;;;5033183;28;20066;-73
2023/01/18 03:07:18;;;;;;;3.35;0.98;;;;;;;;;;5017239;28;20025;-75
2023/01/18 03:09:44;;;;;;;1.20;0.45;;;;;;;;;;5034902;28;20401;-75
2023/01/18 03:12:25;;;;;;;1.75;0.57;;;;;;;;;;5034841;28;20028;-74
2023/01/18 03:15:07;;;;;;;6.50;1.25;;;;;;;;;;5034646;28;20017;-73
2023/01/18 03:17:47;;;;;;;3.45;1.15;;;;;;;;;;5033619;28;20037;-73
2023/01/18 03:20:14;;;;;;;4.60;1.10;;;;;;;;;;5034706;28;20354;-72
2023/01/18 03:25:30;;;;;;;2.92;1.02;;;;;;;;;;5034367;28;20087;-72
2023/01/18 03:33:44;;;;;;;10.20;1.65;;;;;;;;;;5034469;28;20077;-73
2023/01/18 03:36:22;;;;;;;0.30;0.28;;;;;;;;;;5016501;28;20404;-72
2023/01/18 03:38:51;;;;;;;1.55;0.32;;;;;;;;;;5034019;28;20025;-73
2023/01/18 03:41:18;;;;;;;0.10;0.10;;;;;;;;;;5034601;28;20350;-72
2023/01/18 03:43:43;;;;;;;0.80;0.28;;;;;;;;;;5034163;28;20023;-73
2023/01/18 03:46:10;;;;;;;13.18;1.27;;;;;;;;;;5034036;28;20022;-73
2023/01/18 03:48:35;;;;;;;4.47;0.70;;;;;;;;;;5034034;28;20486;-73
2023/01/18 03:51:04;;;;;;;0.25;0.25;;;;;;;;;;5016347;28;20029;-73
2023/01/18 03:53:46;;;;;;;0.10;0.10;;;;;;;;;;5034067;28;20433;-72
2023/01/18 03:56:19;;;;;;;0.95;0.40;;;;;;;;;;5033993;28;20260;-72
2023/01/18 03:58:44;;;;;;;0.75;0.68;;;;;;;;;;5033688;28;20055;-73
2023/01/18 04:01:10;;;;;;;0.28;0.28;;;;;;;;;;5033723;28;20424;-73
2023/01/18 04:03:36;;;;;;;4.30;0.77;;;;;;;;;;5010915;28;20099;-72
2023/01/18 04:06:03;;;;;;;0.35;0.25;;;;;;;;;;5029654;28;20468;-73
2023/01/18 04:08:28;;;;;;;1.48;0.57;;;;;;;;;;5030243;28;20320;-74
2023/01/18 04:10:53;;;;;;;0.85;0.50;;;;;;;;;;5030107;28;20161;-73
2023/01/18 04:13:19;;;;;;;6.30;1.10;;;;;;;;;;5012219;28;20095;-73
2023/01/18 04:15:44;;;;;;;0.10;0.10;;;;;;;;;;5029290;28;20053;-73
2023/01/18 04:18:09;;;;;;;3.42;0.88;;;;;;;;;;5012014;28;20026;-73
2023/01/18 04:20:35;;;;;;;5.07;0.85;;;;;;;;;;5012589;28;20499;-73
2023/01/18 04:23:00;;;;;;;0.20;0.10;;;;;;;;;;5029929;28;20056;-73
2023/01/18 04:25:26;;;;;;;3.35;1.17;;;;;;;;;;5029617;28;20505;-73
2023/01/18 04:27:51;;;;;;;0.93;0.47;;;;;;;;;;5029350;28;20021;-74
2023/01/18 04:30:17;;;;;;;1.85;0.47;;;;;;;;;;5011687;28;20144;-73
2023/01/18 04:32:44;;;;;;;0.90;0.20;;;;;;;;;;5029532;28;20083;-73
2023/01/18 04:35:10;;;;;;;0.10;0.10;;;;;;;;;;5029646;28;20040;-74
2023/01/18 04:37:37;;;;;;;1.17;0.40;;;;;;;;;;5029689;28;20445;-73
2023/01/18 04:40:02;;;;;;;1.60;0.40;;;;;;;;;;5029735;28;20013;-73
2023/01/18 04:42:29;;;;;;;2.80;0.60;;;;;;;;;;5029605;28;20430;-74
2023/01/18 04:44:54;;;;;;;1.08;0.40;;;;;;;;;;5028813;28;20032;-74
2023/01/18 04:47:20;;;;;;;1.02;0.17;;;;;;;;;;5029100;28;20017;-77
2023/01/18 04:49:45;;;;;;;1.63;1.08;;;;;;;;;;5029727;28;20071;-73
2023/01/18 04:52:11;;;;;;;0.77;0.35;;;;;;;;;;4995480;28;20029;-73
2023/01/18 04:54:36;;;;;;;0.93;0.30;;;;;;;;;;5029202;28;20105;-73
2023/01/18 04:57:02;;;;;;;0.10;0.10;;;;;;;;;;5029319;28;20103;-73
2023/01/18 04:59:27;;;;;;;3.42;0.80;;;;;;;;;;5029637;28;20064;-73
2023/01/18 05:01:52;;;;;;;4.03;0.40;;;;;;;;;;5028340;28;20037;-73
2023/01/18 05:04:18;;;;;;;0.25;0.20;;;;;;;;;;5029048;28;20045;-74
2023/01/18 05:06:44;;;;;;;0.50;0.50;;;;;;;;;;5029716;28;20431;-73
2023/01/18 05:09:10;;;;;;;3.63;2.50;;;;;;;;;;5029276;28;20520;-73
2023/01/18 05:11:35;;;;;;;3.60;0.85;;;;;;;;;;5034846;28;20091;-76
2023/01/18 05:14:01;;;;;;;6.13;0.82;;;;;;;;;;5046098;28;20395;-74
2023/01/18 05:16:26;;;;;;;2.05;0.55;;;;;;;;;;5015619;28;20033;-74
2023/01/18 05:18:52;;;;;;;1.95;0.57;;;;;;;;;;5042029;28;20026;-73
2023/01/18 05:21:17;;;;;;;4.18;0.57;;;;;;;;;;5033461;28;20037;-75
2023/01/18 05:23:43;;;;;;;0.10;0.10;;;;;;;;;;5032673;28;20910;-74
2023/01/18 05:26:19;;;;;;;0.10;0.10;;;;;;;;;;5033011;28;20687;-74
2023/01/18 05:28:45;;;;;;;0.10;0.10;;;;;;;;;;5032698;28;20021;-73
2023/01/18 05:31:11;;;;;;;0.93;0.75;;;;;;;;;;5011011;28;20036;-73
2023/01/18 05:33:37;;;;;;;10.30;1.00;;;;;;;;;;5024117;28;20056;-74
2023/01/18 05:36:03;;;;;;;0.10;0.10;;;;;;;;;;5032543;28;20160;-73
2023/01/18 05:38:29;;;;;;;0.17;0.17;;;;;;;;;;5032485;28;20017;-73
2023/01/18 05:40:54;;;;;;;0.10;0.10;;;;;;;;;;5032631;28;20080;-74
2023/01/18 05:43:20;;;;;;;0.45;0.20;;;;;;;;;;5032988;28;20026;-75
2023/01/18 05:45:46;;;;;;;4.90;1.23;;;;;;;;;;5013224;28;20851;-73
2023/01/18 05:48:12;;;;;;;3.30;0.45;;;;;;;;;;5029384;28;20022;-73
2023/01/18 05:50:39;;;;;;;0.10;0.10;;;;;;;;;;5032823;28;20104;-73
2023/01/18 05:53:12;;;;;;;0.90;0.50;;;;;;;;;;5014968;28;20041;-73
2023/01/18 05:55:38;;;;;;;0.50;0.50;;;;;;;;;;5031921;28;20097;-73
2023/01/18 05:58:03;;;;;;;0.17;0.15;;;;;;;;;;5032363;28;20514;-74
2023/01/18 06:00:29;;;;;;;0.52;0.40;;;;;;;;;;5031619;28;20021;-73
2023/01/18 06:02:54;;;;;;;2.75;0.57;;;;;;;;;;5026696;28;20527;-76
2023/01/18 06:05:23;;;;;;;0.00;0.00;;;;;;;;;;4996286;28;20091;-74
2023/01/18 06:07:49;;;;;;;5.47;0.83;;;;;;;;;;5027509;28;20036;-73
2023/01/18 06:10:15;;;;;;;6.80;1.60;;;;;;;;;;5016865;28;20018;-74
2023/01/18 06:12:40;;;;;;;2.05;0.43;;;;;;;;;;5030260;28;20373;-73
2023/01/18 06:15:07;;;;;;;1.33;0.50;;;;;;;;;;5031480;28;20037;-73
2023/01/18 06:17:33;;;;;;;1.02;0.60;;;;;;;;;;5031112;28;20025;-73
2023/01/18 06:19:58;;;;;;;0.15;0.15;;;;;;;;;;5031334;28;20338;-73
2023/01/18 06:22:24;;;;;;;0.57;0.40;;;;;;;;;;5031064;28;20063;-73
2023/01/18 06:24:50;;;;;;;0.20;0.20;;;;;;;;;;5030049;28;20365;-73
2023/01/18 06:27:15;;;;;;;0.32;0.20;;;;;;;;;;5030377;28;20078;-74
2023/01/18 06:29:40;;;;;;;0.15;0.15;;;;;;;;;;5031356;28;20045;-75
2023/01/18 06:32:06;;;;;;;0.70;0.20;;;;;;;;;;5013705;28;20404;-74
2023/01/18 06:34:32;;;;;;;2.58;0.40;;;;;;;;;;5031260;28;20024;-73
2023/01/18 06:36:57;;;;;;;6.03;0.47;;;;;;;;;;5013671;28;20029;-74
2023/01/18 06:39:23;;;;;;;0.10;0.10;;;;;;;;;;5021374;28;20105;-74
2023/01/18 06:41:49;;;;;;;5.93;1.25;;;;;;;;;;5028624;28;20021;-74
2023/01/18 06:44:14;;;;;;;2.65;0.47;;;;;;;;;;5025313;28;20396;-74
2023/01/18 06:46:41;;;;;;;1.02;0.52;;;;;;;;;;5029072;28;20028;-76
2023/01/18 06:49:07;;;;;;;0.90;0.47;;;;;;;;;;5029231;28;20017;-74
2023/01/18 06:51:32;;;;;;;0.75;0.10;;;;;;;;;;5027132;28;20037;-75
2023/01/18 06:53:58;;;;;;;0.10;0.10;;;;;;;;;;5027889;28;20138;-74
2023/01/18 06:56:25;;;;;;;0.30;0.30;;;;;;;;;;5011020;28;20091;-73
2023/01/18 06:58:51;;;;;;;1.55;0.47;;;;;;;;;;5029093;28;20079;-75
2023/01/18 07:01:16;;;;;;;0.20;0.20;;;;;;;;;;5016051;28;20022;-75
2023/01/18 07:03:42;;;;;;;0.00;0.00;;;;;;;;;;5008939;28;20026;-73
2023/01/18 07:06:07;;;;;;;0.10;0.10;;;;;;;;;;5016538;28;20029;-78
2023/01/18 07:08:34;;;;;;;0.10;0.10;;;;;;;;;;5017182;28;20014;-72
2023/01/18 07:11:03;;;;;;;0.10;0.10;;;;;;;;;;5025357;28;20433;-74
2023/01/18 07:13:29;;;;;;;0.10;0.10;;;;;;;;;;5030611;28;20105;-72
2023/01/18 07:15:56;;;;;;;0.30;0.30;;;;;;;;;;5030116;28;20072;-73
2023/01/18 07:18:22;;;;;;;0.22;0.15;;;;;;;;;;5026564;28;20026;-72
2023/01/18 07:21:07;;;;;;;0.10;0.10;;;;;;;;;;5030162;28;20049;-75
2023/01/18 07:23:34;;;;;;;0.70;0.30;;;;;;;;;;5027466;28;20500;-75
2023/01/18 07:26:04;;;;;;;0.10;0.10;;;;;;;;;;5029750;28;20823;-73
2023/01/18 07:28:30;;;;;;;0.35;0.17;;;;;;;;;;5028662;28;20038;-73
2023/01/18 07:30:55;;;;;;;0.52;0.20;;;;;;;;;;5028966;28;20506;-74
2023/01/18 07:33:21;;;;;;;0.10;0.10;;;;;;;;;;5031337;28;20033;-72
2023/01/18 07:35:46;;;;;;;3.22;0.65;;;;;;;;;;5004260;28;20048;-74
2023/01/18 07:38:12;;;;;;;10.85;1.00;;;;;;;;;;5021320;28;20087;-75
2023/01/18 07:40:37;;;;;;;1.58;0.57;;;;;;;;;;5025952;28;20080;-76
2023/01/18 07:43:03;;;;;;;2.08;0.20;;;;;;;;;;5022644;28;20376;-73
2023/01/18 07:45:28;;;;;;;6.95;0.75;;;;;;;;;;5024626;28;20033;-77
2023/01/18 07:47:54;;;;;;;3.10;0.85;;;;;;;;;;5027388;28;20025;-73
2023/01/18 07:50:21;;;;;;;6.32;1.50;;;;;;;;;;5024307;28;20017;-75
2023/01/18 07:52:46;;;;;;;8.40;1.90;;;;;;;;;;5026123;28;20060;-74
2023/01/18 07:55:12;;;;;;;3.78;0.82;;;;;;;;;;5027628;28;20017;-74
2023/01/18 07:57:37;;;;;;;4.65;0.85;;;;;;;;;;5027612;28;20041;-76
2023/01/18 08:00:05;;;;;;;3.20;0.40;;;;;;;;;;5027400;28;20025;-72
2023/01/18 08:02:37;;;;;;;1.60;0.47;;;;;;;;;;5029041;28;20408;-73
2023/01/18 08:05:03;;;;;;;0.10;0.10;;;;;;;;;;5029463;28;20099;-72
2023/01/18 08:07:31;;;;;;;0.10;0.10;;;;;;;;;;5029496;28;20028;-74
2023/01/18 08:09:56;;;;;;;0.35;0.20;;;;;;;;;;5025318;28;20049;-75
2023/01/18 08:12:22;;;;;;;1.45;0.32;;;;;;;;;;5009139;28;20080;-70
2023/01/18 08:14:47;;;;;;;0.10;0.10;;;;;;;;;;5028858;28;20071;-72
2023/01/18 08:17:13;;;;;;;0.38;0.35;;;;;;;;;;5031796;28;20029;-70
2023/01/18 08:19:38;;;;;;;2.63;0.50;;;;;;;;;;5023865;28;20037;-71
2023/01/18 08:22:03;;;;;;;0.10;0.10;;;;;;;;;;5030120;28;20023;-70
2023/01/18 08:24:29;;;;;;;0.40;0.40;;;;;;;;;;5032055;28;20468;-72
2023/01/18 08:26:54;;;;;;;0.10;0.10;;;;;;;;;;5018994;28;20021;-72
2023/01/18 08:29:20;;;;;;;0.10;0.10;;;;;;;;;;5028276;28;20064;-72
2023/01/18 08:31:48;;;;;;;6.93;1.65;;;;;;;;;;5027595;28;20040;-71
2023/01/18 08:34:14;;;;;;;0.10;0.10;;;;;;;;;;5027774;28;20033;-71
2023/01/18 08:36:40;;;;;;;0.10;0.10;;;;;;;;;;5029558;28;20048;-71
2023/01/18 08:39:06;;;;;;;0.10;0.10;;;;;;;;;;5028601;28;20562;-70
2023/01/18 08:41:31;;;;;;;6.28;0.40;;;;;;;;;;5011123;28;20044;-71
2023/01/18 08:43:57;;;;;;;1.08;0.80;;;;;;;;;;5034045;28;20048;-70
2023/01/18 08:46:23;;;;;;;0.10;0.10;;;;;;;;;;5038508;28;20098;-72
2023/01/18 08:48:53;;;;;;;1.13;0.68;;;;;;;;;;5028027;28;20461;-73
2023/01/18 08:51:18;;;;;;;;;;;;;;;;;;5035476;28;20040;-71
2023/01/18 08:53:45;;;;;;;2.20;0.47;;;;;;;;;;5034508;28;19909;-72
2023/01/18 08:56:11;;;;;;;0.45;0.28;;;;;;;;;;5009433;28;20095;-70
2023/01/18 08:58:37;;;;;;;0.10;0.10;;;;;;;;;;5017573;28;20025;-70
2023/01/18 09:01:06;;;;;;;7.00;0.70;;;;;;;;;;5033914;28;20171;-69
2023/01/18 09:03:31;;;;;;;7.38;0.55;;;;;;;;;;5004789;28;20471;-71
2023/01/18 09:06:01;;;;;;;14.82;2.42;;;;;;;;;;5031705;28;20045;-70
2023/01/18 09:08:27;;;;;;;1.55;1.45;;;;;;;;;;5027027;28;20029;-72
2023/01/18 09:10:52;;;;;;;2.10;0.80;;;;;;;;;;5030368;28;20063;-71
2023/01/18 09:13:18;;;;;;;3.92;0.75;;;;;;;;;;5033127;28;20036;-74
2023/01/18 09:15:45;;;;;;;3.90;0.30;;;;;;;;;;5031073;28;20463;-71
2023/01/18 09:18:11;;;;;;;4.75;0.82;;;;;;;;;;5032197;28;20040;-71
2023/01/18 09:20:37;;;;;;;1.02;0.68;;;;;;;;;;5035771;28;20460;-70
2023/01/18 09:23:06;;;;;;;1.45;0.30;;;;;;;;;;5034259;28;20029;-72
2023/01/18 09:25:31;;;;;;;2.80;0.85;;;;;;;;;;5029870;28;20536;-75
2023/01/18 09:27:57;;;;;;;4.25;0.70;;;;;;;;;;5032316;28;20039;-70
2023/01/18 09:30:22;;;;;;;0.85;0.32;;;;;;;;;;5032721;28;20014;-70
2023/01/18 09:32:47;;;;;;;1.20;0.32;;;;;;;;;;5042922;28;20132;-70
2023/01/18 09:35:16;;;;;;;8.77;1.65;;;;;;;;;;5034090;28;20412;-70
2023/01/18 09:37:44;;;;;;;8.35;1.60;;;;;;;;;;5012822;28;20030;-75
2023/01/18 09:40:17;;;;;;;31.67;3.65;;;;;;;;;;5015723;28;20026;-72
2023/01/18 09:42:43;;;;;;;5.70;0.60;;;;;;;;;;5014106;28;20025;-74
2023/01/18 09:45:19;;;;;;;1.52;0.73;;;;;;;;;;5027097;28;20028;-72
2023/01/18 09:47:46;;;;;;;0.95;0.20;;;;;;;;;;5033376;28;20033;-72
2023/01/18 09:50:12;;;;;;;5.07;1.25;;;;;;;;;;5011443;28;20395;-71
2023/01/18 09:52:46;;;;;;;1.25;0.65;;;;;;;;;;5005355;28;20033;-72
2023/01/18 09:55:11;;;;;;;4.55;1.33;;;;;;;;;;5008969;28;20056;-71
2023/01/18 09:57:57;;;;;;;1.45;0.57;;;;;;;;;;5032637;28;20146;-72
2023/01/18 10:00:27;;;;;;;0.70;0.30;;;;;;;;;;5032268;28;20024;-71
2023/01/18 10:02:56;;;;;;;1.95;0.38;;;;;;;;;;5003623;28;20034;-72
2023/01/18 10:05:25;;;;;;;0.10;0.10;;;;;;;;;;5029990;28;20120;-74
2023/01/18 10:08:01;;;;;;;1.73;0.30;;;;;;;;;;5035417;28;20026;-69
2023/01/18 10:10:29;;;;;;;2.33;0.50;;;;;;;;;;5030603;28;20021;-69
2023/01/18 10:13:21;;;;;;;0.85;0.32;;;;;;;;;;5020668;28;20033;-73
2023/01/18 10:15:48;;;;;;;1.10;0.50;;;;;;;;;;4996378;28;20034;-69
2023/01/18 10:18:15;;;;;;;5.40;0.88;;;;;;;;;;5031522;28;20201;-68
2023/01/18 10:20:44;;;;;;;0.10;0.10;;;;;;;;;;5031222;28;20021;-70
2023/01/18 10:23:14;;;;;;;4.60;0.55;;;;;;;;;;5031768;28;20021;-74
2023/01/18 10:25:40;;;;;;;;;;;;;;;;;;5030702;28;20361;-69
2023/01/18 10:28:06;;;;;;;0.10;0.10;;;;;;;;;;5013347;28;19909;-72
2023/01/18 10:30:41;;;;;;;0.10;0.10;;;;;;;;;;5031293;28;20079;-73
2023/01/18 10:33:23;;;;;;;0.88;0.20;;;;;;;;;;5031188;28;20032;-70
2023/01/18 10:35:51;;;;;;;1.35;1.20;;;;;;;;;;5012633;28;20037;-70
2023/01/18 10:38:22;;;;;;;0.68;0.68;;;;;;;;;;5030923;28;20018;-71
2023/01/18 10:40:54;;;;;;;0.10;0.10;;;;;;;;;;5030926;28;20415;-70
2023/01/18 10:43:22;;;;;;;0.10;0.10;;;;;;;;;;5012835;28;20029;-69
2023/01/18 10:45:48;;;;;;;0.63;0.20;;;;;;;;;;5013226;28;20022;-69
2023/01/18 10:48:16;;;;;;;5.32;0.55;;;;;;;;;;5012895;28;20026;-72
2023/01/18 10:50:46;;;;;;;4.90;0.60;;;;;;;;;;5029428;28;20025;-73
2023/01/18 10:53:28;;;;;;;2.50;0.80;;;;;;;;;;5026937;28;20155;-69
2023/01/18 10:56:05;;;;;;;1.45;0.50;;;;;;;;;;5021144;28;20057;-71
2023/01/18 10:58:39;;;;;;;11.07;0.50;;;;;;;;;;5030786;28;20026;-72
2023/01/18 11:01:06;;;;;;;3.20;0.50;;;;;;;;;;5012908;28;20404;-71
2023/01/18 11:03:38;;;;;;;0.43;0.30;;;;;;;;;;5029710;28;20060;-71
2023/01/18 11:06:05;;;;;;;0.47;0.20;;;;;;;;;;5008980;28;20120;-70
2023/01/18 11:08:32;;;;;;;5.72;0.45;;;;;;;;;;5010722;28;20138;-69
2023/01/18 11:10:58;;;;;;;1.60;0.75;;;;;;;;;;5002054;28;20034;-75
2023/01/18 11:13:24;;;;;;;3.22;0.75;;;;;;;;;;4990466;28;20030;-72
2023/01/18 11:16:02;;;;;;;0.35;0.13;;;;;;;;;;5001900;28;20053;-70
2023/01/18 11:18:27;;;;;;;2.88;0.35;;;;;;;;;;5009454;28;20061;-72
2023/01/18 11:20:54;;;;;;;2.80;1.20;;;;;;;;;;5009292;28;20033;-72
2023/01/18 11:23:31;;;;;;;1.33;0.20;;;;;;;;;;4993334;28;20335;-71
2023/01/18 11:26:03;;;;;;;1.85;0.90;;;;;;;;;;4992762;28;20468;-71
2023/01/18 11:28:48;;;;;;;0.55;0.32;;;;;;;;;;5010506;28;20025;-74
2023/01/18 11:31:16;;;;;;;2.67;0.25;;;;;;;;;;5007669;28;20033;-73
2023/01/18 11:33:49;;;;;;;5.22;1.67;;;;;;;;;;5008743;28;20022;-71
2023/01/18 11:36:15;;;;;;;1.63;0.65;;;;;;;;;;4990709;28;20363;-69
2023/01/18 11:38:41;;;;;;;7.93;0.65;;;;;;;;;;4990627;28;20478;-68
2023/01/18 11:41:06;;;;;;;5.10;0.73;;;;;;;;;;4990540;28;20022;-68
2023/01/18 11:43:36;;;;;;;1.73;0.70;;;;;;;;;;5004675;28;20365;-69
2023/01/18 11:46:01;;;;;;;2.30;0.75;;;;;;;;;;5001772;28;20030;-68
2023/01/18 11:48:59;;;;;;;12.13;0.80;;;;;;;;;;5007322;28;20053;-71
2023/01/18 11:51:30;;;;;;;9.25;1.67;;;;;;;;;;4974433;28;20458;-69
2023/01/18 11:54:25;;;;;;;5.18;0.28;;;;;;;;;;5008044;28;20033;-70
2023/01/18 11:56:54;;;;;;;9.25;1.38;;;;;;;;;;4983302;28;20030;-69
2023/01/18 11:59:29;;;;;;;9.02;2.80;;;;;;;;;;4989925;28;20117;-69
2023/01/18 12:02:13;;;;;;;2.35;0.80;;;;;;;;;;4988096;28;20117;-68
2023/01/18 12:04:45;;;;;;;4.43;0.88;;;;;;;;;;4990547;28;20044;-70
2023/01/18 12:07:26;;;;;;;3.67;0.73;;;;;;;;;;5007978;28;20029;-69
2023/01/18 12:09:54;;;;;;;2.42;1.38;;;;;;;;;;4999581;28;20079;-69
2023/01/18 12:12:19;;;;;;;0.20;0.20;;;;;;;;;;5021768;28;20030;-68
2023/01/18 12:14:45;;;;;;;1.70;0.40;;;;;;;;;;5024985;28;20415;-71
2023/01/18 12:17:31;;;;;;;1.73;0.35;;;;;;;;;;5026424;28;20053;-68
2023/01/18 12:20:17;;;;;;;0.47;0.45;;;;;;;;;;5027300;28;20061;-68
2023/01/18 12:22:43;;;;;;;0.20;0.20;;;;;;;;;;5026944;28;20082;-69
2023/01/18 12:25:44;;;;;;;0.70;0.22;;;;;;;;;;5026197;28;20013;-70
2023/01/18 12:28:12;;;;;;;0.10;0.10;;;;;;;;;;4929263;29;20024;-68
2023/01/18 12:30:43;;;;;;;0.35;0.30;;;;;;;;;;5007340;28;20045;-68
2023/01/18 12:33:13;;;;;;;3.85;0.60;;;;;;;;;;5025061;28;20029;-68
2023/01/18 12:35:47;;;;;;;0.38;0.30;;;;;;;;;;5029575;28;20025;-68
2023/01/18 12:38:27;;;;;;;0.52;0.22;;;;;;;;;;5029018;28;20029;-68
2023/01/18 12:41:17;;;;;;;1.25;0.65;;;;;;;;;;5029154;28;20104;-68
2023/01/18 12:44:00;;;;;;;0.38;0.38;;;;;;;;;;5027643;28;20053;-69
2023/01/18 12:46:38;;;;;;;2.45;0.70;;;;;;;;;;5028231;28;20084;-67
2023/01/18 12:49:10;;;;;;;0.10;0.10;;;;;;;;;;5028877;28;20112;-70
2023/01/18 12:51:36;;;;;;;0.10;0.10;;;;;;;;;;5025175;28;20048;-67
2023/01/18 12:54:01;;;;;;;0.10;0.10;;;;;;;;;;5028699;28;20036;-68
2023/01/18 12:56:38;;;;;;;18.50;1.27;;;;;;;;;;5028735;28;20014;-71
2023/01/18 12:59:04;;;;;;;0.10;0.10;;;;;;;;;;5029180;28;20025;-67
2023/01/18 13:01:33;;;;;;;0.10;0.10;;;;;;;;;;5010778;28;20018;-68
2023/01/18 13:04:04;;;;;;;0.13;0.13;;;;;;;;;;5028199;28;20047;-69
2023/01/18 13:06:29;;;;;;;0.10;0.10;;;;;;;;;;5027198;28;20038;-68
2023/01/18 13:08:55;;;;;;;0.17;0.17;;;;;;;;;;5027672;28;20481;-68
2023/01/18 13:11:22;;;;;;;0.10;0.10;;;;;;;;;;5008398;28;20319;-69
2023/01/18 13:13:50;;;;;;;0.15;0.15;;;;;;;;;;5009660;28;20029;-68
2023/01/18 13:16:21;;;;;;;0.10;0.10;;;;;;;;;;5026827;28;20026;-70
2023/01/18 13:18:54;;;;;;;0.10;0.10;;;;;;;;;;5026656;28;20053;-70
2023/01/18 13:21:23;;;;;;;0.45;0.30;;;;;;;;;;5026398;28;20112;-69
2023/01/18 13:23:49;;;;;;;;;;;;;;;;;;5026993;28;20071;-70
2023/01/18 13:26:24;;;;;;;0.10;0.10;;;;;;;;;;5026706;28;20307;-68
2023/01/18 13:29:04;;;;;;;0.40;0.30;;;;;;;;;;5026962;28;20248;-69
2023/01/18 13:31:30;;;;;;;0.73;0.40;;;;;;;;;;5026681;28;20053;-69
2023/01/18 13:33:56;;;;;;;0.20;0.20;;;;;;;;;;5026355;28;20846;-67
2023/01/18 13:36:21;;;;;;;1.05;0.52;;;;;;;;;;5028514;28;20121;-72
2023/01/18 13:38:58;;;;;;;0.10;0.10;;;;;;;;;;5030572;28;20108;-68
2023/01/18 13:41:24;;;;;;;0.10;0.10;;;;;;;;;;5013388;28;20033;-70
2023/01/18 13:43:50;;;;;;;0.13;0.13;;;;;;;;;;5030199;28;20028;-68
2023/01/18 13:46:22;;;;;;;0.10;0.10;;;;;;;;;;5032293;28;20885;-68
2023/01/18 13:48:49;;;;;;;1.75;0.40;;;;;;;;;;4997514;28;20473;-69
2023/01/18 13:51:33;;;;;;;0.20;0.20;;;;;;;;;;5032018;28;20472;-70
2023/01/18 13:53:58;;;;;;;0.10;0.10;;;;;;;;;;5031884;28;20064;-68
2023/01/18 13:56:30;;;;;;;2.63;0.38;;;;;;;;;;5031112;28;20106;-71
2023/01/18 13:59:04;;;;;;;1.48;0.45;;;;;;;;;;5031608;28;20041;-68
2023/01/18 14:01:34;;;;;;;0.40;0.40;;;;;;;;;;5032527;28;20018;-67
2023/01/18 14:04:08;;;;;;;0.65;0.65;;;;;;;;;;5013649;28;20037;-67
2023/01/18 14:06:35;;;;;;;0.10;0.10;;;;;;;;;;5032115;28;20068;-69
2023/01/18 14:09:07;;;;;;;0.20;0.20;;;;;;;;;;5032216;28;20047;-68
2023/01/18 14:11:36;;;;;;;0.30;0.30;;;;;;;;;;5014369;28;20091;-68
2023/01/18 14:14:02;;;;;;;2.55;0.82;;;;;;;;;;5014207;28;20025;-68
2023/01/18 14:16:29;;;;;;;0.17;0.17;;;;;;;;;;5032213;28;20133;-68
2023/01/18 14:19:00;;;;;;;0.17;0.17;;;;;;;;;;5031897;28;20022;-69
2023/01/18 14:21:25;;;;;;;0.10;0.10;;;;;;;;;;5031768;28;20055;-68
2023/01/18 14:23:54;;;;;;;0.10;0.10;;;;;;;;;;5031527;28;20057;-68
2023/01/18 14:26:21;;;;;;;0.10;0.10;;;;;;;;;;5031430;28;20013;-68
2023/01/18 14:28:54;;;;;;;0.73;0.30;;;;;;;;;;5032269;28;20036;-69
2023/01/18 14:31:24;;;;;;;1.85;1.10;;;;;;;;;;5032094;28;20091;-67
2023/01/18 14:33:50;;;;;;;0.10;0.10;;;;;;;;;;5032070;28;20042;-68
2023/01/18 14:36:23;;;;;;;0.10;0.10;;;;;;;;;;5031496;28;20075;-68
2023/01/18 14:39:05;;;;;;;0.10;0.10;;;;;;;;;;5031838;28;20033;-68
2023/01/18 14:41:31;;;;;;;0.10;0.10;;;;;;;;;;5032115;28;20731;-68
2023/01/18 14:43:56;;;;;;;0.10;0.10;;;;;;;;;;5030658;28;20100;-67
2023/01/18 14:46:25;;;;;;;0.10;0.10;;;;;;;;;;5031133;28;20025;-71
2023/01/18 14:48:55;;;;;;;0.10;0.10;;;;;;;;;;5029654;28;20040;-68
2023/01/18 14:51:22;;;;;;;0.10;0.10;;;;;;;;;;5030468;28;20056;-68
2023/01/18 14:53:59;;;;;;;0.10;0.10;;;;;;;;;;5030157;28;20511;-67
2023/01/18 14:56:29;;;;;;;0.10;0.10;;;;;;;;;;5031429;28;20115;-68
2023/01/18 14:58:54;;;;;;;;;;;;;;;;;;5029620;28;20029;-68
2023/01/18 15:01:23;;;;;;;0.10;0.10;;;;;;;;;;5030040;28;19951;-68
2023/01/18 15:03:51;;;;;;;0.10;0.10;;;;;;;;;;5028473;28;20021;-69
2023/01/18 15:06:18;;;;;;;0.10;0.10;;;;;;;;;;5040774;28;20051;-70
2023/01/18 15:08:45;;;;;;;0.10;0.10;;;;;;;;;;5044186;28;20298;-71
2023/01/18 15:11:11;;;;;;;0.10;0.10;;;;;;;;;;5025922;28;20100;-69
2023/01/18 15:13:42;;;;;;;0.10;0.10;;;;;;;;;;5028143;28;20044;-70
2023/01/18 15:16:08;;;;;;;0.10;0.10;;;;;;;;;;5033774;28;20104;-71
2023/01/18 15:18:33;;;;;;;0.38;0.38;;;;;;;;;;5016066;28;20018;-70
2023/01/18 15:21:03;;;;;;;0.10;0.10;;;;;;;;;;4990906;28;20041;-69
2023/01/18 15:23:28;;;;;;;0.10;0.10;;;;;;;;;;5007426;28;20033;-71